Terminal Aerodrome Forecast
Issued by NWS

Home | Current Version | Previous Version | Text Only | Print | Product List | Glossary On
Versions: 1 2 3 4 5 6 7 8 9 10 11 12 13 14
000
FTUS45 KRIW 092333
TAFPNA
TAF
KPNA 092333Z 1000/1024 VRB05KT 3SM -SN BR SCT007 OVC012
     FM100100 30006KT 1 1/2SM -SN OVC009
     FM101300 30006KT 2SM -SN OVC016
     FM102200 30007KT 4SM -SN OVC025
      AMD LTD TO CLD VIS AND WIND=

USA.gov is the U.S. government's official web portal to all federal, state and local government web resources and services.